sensor_id;sensor_type;location;lat;lon;timestamp;temperature;humidity
652;DHT22;310;48.490;9.200;2023-02-28T00:00:31;3.40;25.90
652;DHT22;310;48.490;9.200;2023-02-28T00:02:56;3.60;25.00
652;DHT22;310;48.490;9.200;2023-02-28T00:05:24;3.70;24.80
652;DHT22;310;48.490;9.200;2023-02-28T00:07:49;3.70;24.70
652;DHT22;310;48.490;9.200;2023-02-28T00:10:21;3.70;24.80
652;DHT22;310;48.490;9.200;2023-02-28T00:12:49;3.90;24.60
652;DHT22;310;48.490;9.200;2023-02-28T00:15:15;3.80;24.20
652;DHT22;310;48.490;9.200;2023-02-28T00:17:41;3.70;24.60
652;DHT22;310;48.490;9.200;2023-02-28T00:20:07;3.80;24.30
652;DHT22;310;48.490;9.200;2023-02-28T00:22:34;3.80;24.90
652;DHT22;310;48.490;9.200;2023-02-28T00:25:00;3.70;24.90
652;DHT22;310;48.490;9.200;2023-02-28T00:27:25;3.50;25.50
652;DHT22;310;48.490;9.200;2023-02-28T00:29:51;3.50;25.80
652;DHT22;310;48.490;9.200;2023-02-28T00:32:16;3.70;25.10
652;DHT22;310;48.490;9.200;2023-02-28T00:34:44;3.80;25.00
652;DHT22;310;48.490;9.200;2023-02-28T00:37:11;3.70;25.10
652;DHT22;310;48.490;9.200;2023-02-28T00:39:40;3.40;25.30
652;DHT22;310;48.490;9.200;2023-02-28T00:42:05;2.90;26.10
652;DHT22;310;48.490;9.200;2023-02-28T00:44:31;2.90;26.30
652;DHT22;310;48.490;9.200;2023-02-28T00:46:58;3.20;26.10
652;DHT22;310;48.490;9.200;2023-02-28T00:49:25;3.20;25.90
652;DHT22;310;48.490;9.200;2023-02-28T00:51:51;3.10;26.10
652;DHT22;310;48.490;9.200;2023-02-28T00:54:17;3.20;26.00
652;DHT22;310;48.490;9.200;2023-02-28T00:56:42;3.30;26.30
652;DHT22;310;48.490;9.200;2023-02-28T00:59:08;3.50;26.00
652;DHT22;310;48.490;9.200;2023-02-28T01:01:34;3.60;25.40
652;DHT22;310;48.490;9.200;2023-02-28T01:04:00;3.60;26.40
652;DHT22;310;48.490;9.200;2023-02-28T01:06:26;3.20;26.00
652;DHT22;310;48.490;9.200;2023-02-28T01:08:52;3.20;26.80
652;DHT22;310;48.490;9.200;2023-02-28T01:11:18;3.20;26.90
652;DHT22;310;48.490;9.200;2023-02-28T01:13:45;3.30;27.30
652;DHT22;310;48.490;9.200;2023-02-28T01:16:12;3.20;27.80
652;DHT22;310;48.490;9.200;2023-02-28T01:18:38;3.10;27.70
652;DHT22;310;48.490;9.200;2023-02-28T01:21:05;2.90;27.90
652;DHT22;310;48.490;9.200;2023-02-28T01:23:31;3.10;28.10
652;DHT22;310;48.490;9.200;2023-02-28T01:25:57;3.20;28.20
652;DHT22;310;48.490;9.200;2023-02-28T01:28:23;3.30;28.20
652;DHT22;310;48.490;9.200;2023-02-28T01:30:49;3.40;27.90
652;DHT22;310;48.490;9.200;2023-02-28T01:33:15;3.30;28.20
652;DHT22;310;48.490;9.200;2023-02-28T01:35:40;2.80;29.00
652;DHT22;310;48.490;9.200;2023-02-28T01:38:06;3.00;29.50
652;DHT22;310;48.490;9.200;2023-02-28T01:40:32;3.30;28.80
652;DHT22;310;48.490;9.200;2023-02-28T01:42:58;3.20;28.10
652;DHT22;310;48.490;9.200;2023-02-28T01:47:55;3.00;29.00
652;DHT22;310;48.490;9.200;2023-02-28T01:50:28;3.10;28.90
652;DHT22;310;48.490;9.200;2023-02-28T01:52:56;3.30;28.60
652;DHT22;310;48.490;9.200;2023-02-28T01:55:23;3.20;28.60
652;DHT22;310;48.490;9.200;2023-02-28T01:57:55;3.30;28.50
652;DHT22;310;48.490;9.200;2023-02-28T02:00:25;3.00;28.80
652;DHT22;310;48.490;9.200;2023-02-28T02:02:55;3.20;28.60
652;DHT22;310;48.490;9.200;2023-02-28T02:05:29;3.20;28.50
652;DHT22;310;48.490;9.200;2023-02-28T02:08:01;3.30;28.70
652;DHT22;310;48.490;9.200;2023-02-28T02:13:58;3.30;28.20
652;DHT22;310;48.490;9.200;2023-02-28T02:35:56;3.10;28.70
652;DHT22;310;48.490;9.200;2023-02-28T02:38:47;3.20;28.80
652;DHT22;310;48.490;9.200;2023-02-28T02:41:21;3.20;28.70
652;DHT22;310;48.490;9.200;2023-02-28T02:46:36;3.30;28.30
652;DHT22;310;48.490;9.200;2023-02-28T02:49:06;2.70;29.80
652;DHT22;310;48.490;9.200;2023-02-28T02:51:34;3.00;29.40
652;DHT22;310;48.490;9.200;2023-02-28T02:54:05;3.10;29.20
652;DHT22;310;48.490;9.200;2023-02-28T02:56:33;3.20;29.50
652;DHT22;310;48.490;9.200;2023-02-28T02:59:03;3.10;28.90
652;DHT22;310;48.490;9.200;2023-02-28T03:01:31;3.10;29.30
652;DHT22;310;48.490;9.200;2023-02-28T03:04:09;3.30;29.30
652;DHT22;310;48.490;9.200;2023-02-28T03:06:36;3.20;29.30
652;DHT22;310;48.490;9.200;2023-02-28T03:09:02;3.30;29.70
652;DHT22;310;48.490;9.200;2023-02-28T03:11:30;3.20;29.90
652;DHT22;310;48.490;9.200;2023-02-28T03:14:15;3.50;28.70
652;DHT22;310;48.490;9.200;2023-02-28T03:28:00;3.60;28.40
652;DHT22;310;48.490;9.200;2023-02-28T03:30:47;3.60;28.90
652;DHT22;310;48.490;9.200;2023-02-28T03:33:42;3.50;28.30
652;DHT22;310;48.490;9.200;2023-02-28T03:36:14;3.70;28.50
652;DHT22;310;48.490;9.200;2023-02-28T03:38:49;3.80;28.50
652;DHT22;310;48.490;9.200;2023-02-28T03:44:13;3.10;29.50
652;DHT22;310;48.490;9.200;2023-02-28T03:46:49;3.30;29.90
652;DHT22;310;48.490;9.200;2023-02-28T03:49:21;3.60;29.30
652;DHT22;310;48.490;9.200;2023-02-28T03:51:49;3.70;29.10
652;DHT22;310;48.490;9.200;2023-02-28T03:54:19;3.60;28.70
652;DHT22;310;48.490;9.200;2023-02-28T03:56:59;3.50;29.10
652;DHT22;310;48.490;9.200;2023-02-28T03:59:28;3.80;29.00
652;DHT22;310;48.490;9.200;2023-02-28T04:01:57;3.10;29.40
652;DHT22;310;48.490;9.200;2023-02-28T04:04:23;3.00;31.00
652;DHT22;310;48.490;9.200;2023-02-28T04:06:51;3.20;30.70
652;DHT22;310;48.490;9.200;2023-02-28T04:09:16;3.40;30.00
652;DHT22;310;48.490;9.200;2023-02-28T04:11:45;3.50;29.50
652;DHT22;310;48.490;9.200;2023-02-28T04:14:11;3.40;30.00
652;DHT22;310;48.490;9.200;2023-02-28T04:16:40;3.40;30.40
652;DHT22;310;48.490;9.200;2023-02-28T04:19:07;3.40;29.90
652;DHT22;310;48.490;9.200;2023-02-28T04:21:35;3.30;30.40
652;DHT22;310;48.490;9.200;2023-02-28T04:24:02;3.50;29.90
652;DHT22;310;48.490;9.200;2023-02-28T04:26:36;3.30;30.20
652;DHT22;310;48.490;9.200;2023-02-28T04:29:04;3.30;29.90
652;DHT22;310;48.490;9.200;2023-02-28T04:31:31;2.80;31.00
652;DHT22;310;48.490;9.200;2023-02-28T04:33:57;2.80;31.10
652;DHT22;310;48.490;9.200;2023-02-28T04:36:23;3.00;30.80
652;DHT22;310;48.490;9.200;2023-02-28T04:38:49;2.80;31.20
652;DHT22;310;48.490;9.200;2023-02-28T04:41:16;3.10;31.00
652;DHT22;310;48.490;9.200;2023-02-28T04:43:41;3.30;30.10
652;DHT22;310;48.490;9.200;2023-02-28T04:46:07;3.10;30.90
652;DHT22;310;48.490;9.200;2023-02-28T04:48:35;3.20;30.50
652;DHT22;310;48.490;9.200;2023-02-28T04:51:09;3.40;31.50
652;DHT22;310;48.490;9.200;2023-02-28T04:53:37;3.50;29.70
652;DHT22;310;48.490;9.200;2023-02-28T04:56:03;3.50;29.90
652;DHT22;310;48.490;9.200;2023-02-28T04:58:29;3.50;30.00
652;DHT22;310;48.490;9.200;2023-02-28T05:01:05;3.20;30.30
652;DHT22;310;48.490;9.200;2023-02-28T05:03:38;3.20;30.50
652;DHT22;310;48.490;9.200;2023-02-28T05:06:06;3.20;30.90
652;DHT22;310;48.490;9.200;2023-02-28T05:08:32;3.10;31.30
652;DHT22;310;48.490;9.200;2023-02-28T05:10:58;3.20;31.50
652;DHT22;310;48.490;9.200;2023-02-28T05:13:26;3.40;30.50
652;DHT22;310;48.490;9.200;2023-02-28T05:15:52;3.10;30.80
652;DHT22;310;48.490;9.200;2023-02-28T05:18:18;3.00;31.20
652;DHT22;310;48.490;9.200;2023-02-28T05:20:43;3.30;30.80
652;DHT22;310;48.490;9.200;2023-02-28T05:23:12;3.60;30.00
652;DHT22;310;48.490;9.200;2023-02-28T05:25:38;3.50;30.50
652;DHT22;310;48.490;9.200;2023-02-28T05:28:04;3.70;30.30
652;DHT22;310;48.490;9.200;2023-02-28T05:30:30;3.70;30.00
652;DHT22;310;48.490;9.200;2023-02-28T05:32:57;3.50;30.40
652;DHT22;310;48.490;9.200;2023-02-28T05:35:23;3.60;30.70
652;DHT22;310;48.490;9.200;2023-02-28T05:37:49;3.70;30.00
652;DHT22;310;48.490;9.200;2023-02-28T05:40:15;3.50;30.30
652;DHT22;310;48.490;9.200;2023-02-28T05:42:41;3.40;31.30
652;DHT22;310;48.490;9.200;2023-02-28T05:45:08;3.40;30.90
652;DHT22;310;48.490;9.200;2023-02-28T05:47:34;3.40;31.20
652;DHT22;310;48.490;9.200;2023-02-28T05:50:00;3.40;31.20
652;DHT22;310;48.490;9.200;2023-02-28T05:52:26;3.40;31.20
652;DHT22;310;48.490;9.200;2023-02-28T05:54:52;3.40;30.60
652;DHT22;310;48.490;9.200;2023-02-28T05:57:18;3.60;30.50
652;DHT22;310;48.490;9.200;2023-02-28T05:59:43;3.40;30.60
652;DHT22;310;48.490;9.200;2023-02-28T06:02:13;3.60;30.60
652;DHT22;310;48.490;9.200;2023-02-28T06:04:39;3.50;30.60
652;DHT22;310;48.490;9.200;2023-02-28T06:07:06;3.80;30.00
652;DHT22;310;48.490;9.200;2023-02-28T06:09:32;3.80;30.00
652;DHT22;310;48.490;9.200;2023-02-28T06:12:01;3.80;30.00
652;DHT22;310;48.490;9.200;2023-02-28T06:14:29;3.70;30.10
652;DHT22;310;48.490;9.200;2023-02-28T06:16:56;3.70;29.80
652;DHT22;310;48.490;9.200;2023-02-28T06:19:22;3.70;30.00
652;DHT22;310;48.490;9.200;2023-02-28T06:21:51;3.70;30.00
652;DHT22;310;48.490;9.200;2023-02-28T06:24:21;4.00;29.60
652;DHT22;310;48.490;9.200;2023-02-28T06:26:47;4.20;29.30
652;DHT22;310;48.490;9.200;2023-02-28T06:29:13;4.20;28.80
652;DHT22;310;48.490;9.200;2023-02-28T06:31:44;3.90;29.50
652;DHT22;310;48.490;9.200;2023-02-28T06:34:11;3.90;29.80
652;DHT22;310;48.490;9.200;2023-02-28T06:36:38;4.10;29.80
652;DHT22;310;48.490;9.200;2023-02-28T06:39:05;4.00;29.50
652;DHT22;310;48.490;9.200;2023-02-28T06:41:31;4.10;28.80
652;DHT22;310;48.490;9.200;2023-02-28T06:43:57;3.90;29.60
652;DHT22;310;48.490;9.200;2023-02-28T06:46:23;4.10;29.10
652;DHT22;310;48.490;9.200;2023-02-28T06:48:49;3.40;29.70
652;DHT22;310;48.490;9.200;2023-02-28T06:51:17;3.70;30.60
652;DHT22;310;48.490;9.200;2023-02-28T06:53:46;4.10;29.80
652;DHT22;310;48.490;9.200;2023-02-28T06:56:13;4.10;28.80
652;DHT22;310;48.490;9.200;2023-02-28T06:58:39;3.90;29.60
652;DHT22;310;48.490;9.200;2023-02-28T07:01:06;4.20;28.80
652;DHT22;310;48.490;9.200;2023-02-28T07:03:32;4.10;28.70
652;DHT22;310;48.490;9.200;2023-02-28T07:05:58;4.30;28.90
652;DHT22;310;48.490;9.200;2023-02-28T07:08:25;4.30;28.90
652;DHT22;310;48.490;9.200;2023-02-28T07:10:54;4.40;28.90
652;DHT22;310;48.490;9.200;2023-02-28T07:13:21;4.50;28.30
652;DHT22;310;48.490;9.200;2023-02-28T07:15:53;4.30;28.30
652;DHT22;310;48.490;9.200;2023-02-28T07:18:19;4.40;28.70
652;DHT22;310;48.490;9.200;2023-02-28T07:20:45;4.30;28.40
652;DHT22;310;48.490;9.200;2023-02-28T07:23:10;4.50;27.60
652;DHT22;310;48.490;9.200;2023-02-28T07:25:36;4.50;28.00
652;DHT22;310;48.490;9.200;2023-02-28T07:28:01;4.40;27.70
652;DHT22;310;48.490;9.200;2023-02-28T07:30:27;4.40;27.40
652;DHT22;310;48.490;9.200;2023-02-28T07:32:53;3.90;28.20
652;DHT22;310;48.490;9.200;2023-02-28T07:35:21;4.10;27.70
652;DHT22;310;48.490;9.200;2023-02-28T07:37:47;4.40;27.20
652;DHT22;310;48.490;9.200;2023-02-28T07:40:13;4.10;28.30
652;DHT22;310;48.490;9.200;2023-02-28T07:42:41;3.40;29.00
652;DHT22;310;48.490;9.200;2023-02-28T07:45:07;2.90;29.30
652;DHT22;310;48.490;9.200;2023-02-28T07:47:34;2.90;29.90
652;DHT22;310;48.490;9.200;2023-02-28T07:49:59;2.90;29.50
652;DHT22;310;48.490;9.200;2023-02-28T07:52:25;3.50;28.30
652;DHT22;310;48.490;9.200;2023-02-28T07:54:51;3.90;28.30
652;DHT22;310;48.490;9.200;2023-02-28T07:57:18;4.00;27.90
652;DHT22;310;48.490;9.200;2023-02-28T07:59:43;3.50;28.30
652;DHT22;310;48.490;9.200;2023-02-28T08:02:17;3.30;29.20
652;DHT22;310;48.490;9.200;2023-02-28T08:04:43;3.20;28.90
652;DHT22;310;48.490;9.200;2023-02-28T08:07:09;3.20;29.30
652;DHT22;310;48.490;9.200;2023-02-28T08:09:39;3.00;29.50
652;DHT22;310;48.490;9.200;2023-02-28T08:12:06;3.30;28.50
652;DHT22;310;48.490;9.200;2023-02-28T08:14:33;3.70;28.40
652;DHT22;310;48.490;9.200;2023-02-28T08:16:59;3.90;27.40
652;DHT22;310;48.490;9.200;2023-02-28T08:19:24;4.00;27.80
652;DHT22;310;48.490;9.200;2023-02-28T08:21:50;4.00;27.60
652;DHT22;310;48.490;9.200;2023-02-28T08:24:15;3.90;27.60
652;DHT22;310;48.490;9.200;2023-02-28T08:26:41;3.20;29.30
652;DHT22;310;48.490;9.200;2023-02-28T08:29:07;3.60;28.40
652;DHT22;310;48.490;9.200;2023-02-28T08:31:32;3.90;28.20
652;DHT22;310;48.490;9.200;2023-02-28T08:33:58;4.30;27.50
652;DHT22;310;48.490;9.200;2023-02-28T08:36:25;4.40;26.80
652;DHT22;310;48.490;9.200;2023-02-28T08:38:51;4.40;27.00
652;DHT22;310;48.490;9.200;2023-02-28T08:41:17;4.20;28.30
652;DHT22;310;48.490;9.200;2023-02-28T08:43:43;4.00;27.50
652;DHT22;310;48.490;9.200;2023-02-28T08:46:11;4.20;27.30
652;DHT22;310;48.490;9.200;2023-02-28T08:48:37;4.50;26.90
652;DHT22;310;48.490;9.200;2023-02-28T08:51:07;4.50;26.80
652;DHT22;310;48.490;9.200;2023-02-28T08:53:35;4.70;26.40
652;DHT22;310;48.490;9.200;2023-02-28T08:56:03;4.80;26.40
652;DHT22;310;48.490;9.200;2023-02-28T08:58:30;4.60;26.60
652;DHT22;310;48.490;9.200;2023-02-28T09:00:56;4.70;27.00
652;DHT22;310;48.490;9.200;2023-02-28T09:03:22;4.10;27.60
652;DHT22;310;48.490;9.200;2023-02-28T09:05:56;3.60;28.40
652;DHT22;310;48.490;9.200;2023-02-28T09:08:23;3.60;28.40
652;DHT22;310;48.490;9.200;2023-02-28T09:10:49;3.40;28.40
652;DHT22;310;48.490;9.200;2023-02-28T09:13:15;3.80;27.90
652;DHT22;310;48.490;9.200;2023-02-28T09:15:40;3.70;28.30
652;DHT22;310;48.490;9.200;2023-02-28T09:18:06;4.30;27.50
652;DHT22;310;48.490;9.200;2023-02-28T09:20:31;4.70;26.50
652;DHT22;310;48.490;9.200;2023-02-28T09:22:57;4.50;26.80
652;DHT22;310;48.490;9.200;2023-02-28T09:25:23;4.70;26.30
652;DHT22;310;48.490;9.200;2023-02-28T09:27:48;4.60;26.40
652;DHT22;310;48.490;9.200;2023-02-28T09:30:14;4.20;27.30
652;DHT22;310;48.490;9.200;2023-02-28T09:32:40;3.90;27.80
652;DHT22;310;48.490;9.200;2023-02-28T09:35:06;4.00;27.70
652;DHT22;310;48.490;9.200;2023-02-28T09:37:31;3.80;28.10
652;DHT22;310;48.490;9.200;2023-02-28T09:39:57;4.30;27.40
652;DHT22;310;48.490;9.200;2023-02-28T09:42:33;4.50;26.90
652;DHT22;310;48.490;9.200;2023-02-28T09:45:02;4.20;27.30
652;DHT22;310;48.490;9.200;2023-02-28T09:47:37;4.20;27.40
652;DHT22;310;48.490;9.200;2023-02-28T09:50:59;4.20;27.90
652;DHT22;310;48.490;9.200;2023-02-28T09:53:32;4.20;27.50
652;DHT22;310;48.490;9.200;2023-02-28T09:56:02;4.70;26.80
652;DHT22;310;48.490;9.200;2023-02-28T10:06:53;5.00;26.90
652;DHT22;310;48.490;9.200;2023-02-28T10:09:26;5.40;26.60
652;DHT22;310;48.490;9.200;2023-02-28T10:11:54;5.00;26.40
652;DHT22;310;48.490;9.200;2023-02-28T10:14:24;5.00;26.00
652;DHT22;310;48.490;9.200;2023-02-28T10:16:54;5.50;25.50
652;DHT22;310;48.490;9.200;2023-02-28T10:22:19;5.40;25.40
652;DHT22;310;48.490;9.200;2023-02-28T10:24:51;5.30;25.40
652;DHT22;310;48.490;9.200;2023-02-28T10:27:23;5.20;25.60
652;DHT22;310;48.490;9.200;2023-02-28T10:30:00;5.40;25.60
652;DHT22;310;48.490;9.200;2023-02-28T10:32:32;5.90;24.90
652;DHT22;310;48.490;9.200;2023-02-28T10:35:20;6.20;24.50
652;DHT22;310;48.490;9.200;2023-02-28T10:37:54;6.40;23.90
652;DHT22;310;48.490;9.200;2023-02-28T10:42:58;6.00;24.80
652;DHT22;310;48.490;9.200;2023-02-28T10:45:24;5.50;25.00
652;DHT22;310;48.490;9.200;2023-02-28T10:48:27;5.20;26.00
652;DHT22;310;48.490;9.200;2023-02-28T10:50:53;5.80;25.30
652;DHT22;310;48.490;9.200;2023-02-28T10:56:15;7.40;22.60
652;DHT22;310;48.490;9.200;2023-02-28T11:01:19;6.90;23.60
652;DHT22;310;48.490;9.200;2023-02-28T11:03:45;7.30;23.30
652;DHT22;310;48.490;9.200;2023-02-28T11:06:17;7.50;22.30
652;DHT22;310;48.490;9.200;2023-02-28T11:11:43;6.80;23.80
652;DHT22;310;48.490;9.200;2023-02-28T11:14:21;6.70;23.60
652;DHT22;310;48.490;9.200;2023-02-28T11:16:48;6.60;23.60
652;DHT22;310;48.490;9.200;2023-02-28T11:19:25;7.30;22.90
652;DHT22;310;48.490;9.200;2023-02-28T11:21:56;7.90;23.10
652;DHT22;310;48.490;9.200;2023-02-28T11:24:33;8.10;21.80
652;DHT22;310;48.490;9.200;2023-02-28T11:27:00;8.20;21.20
652;DHT22;310;48.490;9.200;2023-02-28T11:29:28;7.30;23.40
652;DHT22;310;48.490;9.200;2023-02-28T11:32:05;8.00;21.80
652;DHT22;310;48.490;9.200;2023-02-28T11:34:31;7.70;22.20
652;DHT22;310;48.490;9.200;2023-02-28T11:36:59;7.70;21.80
652;DHT22;310;48.490;9.200;2023-02-28T11:39:26;7.40;23.40
652;DHT22;310;48.490;9.200;2023-02-28T11:42:02;7.90;22.30
652;DHT22;310;48.490;9.200;2023-02-28T11:47:33;8.70;20.20
652;DHT22;310;48.490;9.200;2023-02-28T11:50:19;7.90;21.20
652;DHT22;310;48.490;9.200;2023-02-28T11:53:00;7.70;22.00
652;DHT22;310;48.490;9.200;2023-02-28T11:55:37;8.30;21.40
652;DHT22;310;48.490;9.200;2023-02-28T12:01:42;8.50;21.00
652;DHT22;310;48.490;9.200;2023-02-28T12:09:51;11.30;17.50
652;DHT22;310;48.490;9.200;2023-02-28T12:20:38;13.30;15.00
652;DHT22;310;48.490;9.200;2023-02-28T12:23:17;13.90;14.20
652;DHT22;310;48.490;9.200;2023-02-28T12:28:53;15.60;12.60
652;DHT22;310;48.490;9.200;2023-02-28T12:31:38;14.50;14.30
652;DHT22;310;48.490;9.200;2023-02-28T12:34:12;14.60;14.50
652;DHT22;310;48.490;9.200;2023-02-28T12:36:40;14.50;14.40
652;DHT22;310;48.490;9.200;2023-02-28T12:42:00;14.80;13.20
652;DHT22;310;48.490;9.200;2023-02-28T12:47:02;13.90;15.00
652;DHT22;310;48.490;9.200;2023-02-28T12:50:03;12.50;14.50
652;DHT22;310;48.490;9.200;2023-02-28T12:55:43;11.20;17.70
652;DHT22;310;48.490;9.200;2023-02-28T12:58:20;10.80;17.00
652;DHT22;310;48.490;9.200;2023-02-28T13:09:24;10.60;17.20
652;DHT22;310;48.490;9.200;2023-02-28T13:11:53;10.30;17.70
652;DHT22;310;48.490;9.200;2023-02-28T13:19:39;9.00;20.50
652;DHT22;310;48.490;9.200;2023-02-28T13:22:19;9.30;20.70
652;DHT22;310;48.490;9.200;2023-02-28T13:24:48;9.50;20.40
652;DHT22;310;48.490;9.200;2023-02-28T13:29:41;12.00;17.10
652;DHT22;310;48.490;9.200;2023-02-28T13:34:38;14.20;14.00
652;DHT22;310;48.490;9.200;2023-02-28T13:47:42;14.90;13.00
652;DHT22;310;48.490;9.200;2023-02-28T14:06:34;18.10;9.40
652;DHT22;310;48.490;9.200;2023-02-28T14:09:04;16.80;10.40
652;DHT22;310;48.490;9.200;2023-02-28T14:11:40;16.30;10.40
652;DHT22;310;48.490;9.200;2023-02-28T14:14:09;14.40;12.70
652;DHT22;310;48.490;9.200;2023-02-28T14:19:23;16.70;11.00
652;DHT22;310;48.490;9.200;2023-02-28T14:37:33;15.00;12.20
652;DHT22;310;48.490;9.200;2023-02-28T14:40:02;15.50;11.90
652;DHT22;310;48.490;9.200;2023-02-28T14:42:34;17.00;11.00
652;DHT22;310;48.490;9.200;2023-02-28T14:45:01;17.70;9.90
652;DHT22;310;48.490;9.200;2023-02-28T14:47:35;16.30;10.80
652;DHT22;310;48.490;9.200;2023-02-28T14:50:03;14.30;12.50
652;DHT22;310;48.490;9.200;2023-02-28T14:52:31;14.20;13.10
652;DHT22;310;48.490;9.200;2023-02-28T14:55:01;12.50;15.00
652;DHT22;310;48.490;9.200;2023-02-28T14:57:33;12.90;13.90
652;DHT22;310;48.490;9.200;2023-02-28T15:00:14;11.70;15.30
652;DHT22;310;48.490;9.200;2023-02-28T15:02:40;10.30;17.00
652;DHT22;310;48.490;9.200;2023-02-28T15:05:16;9.80;18.60
652;DHT22;310;48.490;9.200;2023-02-28T15:07:45;9.50;19.20
652;DHT22;310;48.490;9.200;2023-02-28T15:13:00;10.00;17.50
652;DHT22;310;48.490;9.200;2023-02-28T15:15:46;9.20;19.40
652;DHT22;310;48.490;9.200;2023-02-28T15:18:42;9.00;20.40
652;DHT22;310;48.490;9.200;2023-02-28T15:21:15;8.60;20.70
652;DHT22;310;48.490;9.200;2023-02-28T15:23:44;9.10;20.00
652;DHT22;310;48.490;9.200;2023-02-28T15:26:20;9.30;20.70
652;DHT22;310;48.490;9.200;2023-02-28T15:29:04;8.70;20.80
652;DHT22;310;48.490;9.200;2023-02-28T15:31:43;8.80;21.30
652;DHT22;310;48.490;9.200;2023-02-28T15:36:53;8.50;20.90
652;DHT22;310;48.490;9.200;2023-02-28T15:39:22;8.40;21.30
652;DHT22;310;48.490;9.200;2023-02-28T15:41:48;8.80;21.60
652;DHT22;310;48.490;9.200;2023-02-28T15:44:27;8.50;21.60
652;DHT22;310;48.490;9.200;2023-02-28T15:47:24;8.90;20.40
652;DHT22;310;48.490;9.200;2023-02-28T15:52:20;8.80;20.40
652;DHT22;310;48.490;9.200;2023-02-28T15:54:47;8.90;20.00
652;DHT22;310;48.490;9.200;2023-02-28T15:57:23;8.50;21.10
652;DHT22;310;48.490;9.200;2023-02-28T16:00:01;8.30;21.20
652;DHT22;310;48.490;9.200;2023-02-28T16:02:34;8.10;22.00
652;DHT22;310;48.490;9.200;2023-02-28T16:07:32;8.60;21.50
652;DHT22;310;48.490;9.200;2023-02-28T16:09:59;8.80;20.90
652;DHT22;310;48.490;9.200;2023-02-28T16:12:30;9.20;20.30
652;DHT22;310;48.490;9.200;2023-02-28T16:14:58;9.50;19.90
652;DHT22;310;48.490;9.200;2023-02-28T16:17:32;9.10;20.40
652;DHT22;310;48.490;9.200;2023-02-28T16:19:59;9.10;20.30
652;DHT22;310;48.490;9.200;2023-02-28T16:22:25;8.50;20.90
652;DHT22;310;48.490;9.200;2023-02-28T16:24:51;8.90;21.00
652;DHT22;310;48.490;9.200;2023-02-28T16:27:32;9.10;20.40
652;DHT22;310;48.490;9.200;2023-02-28T16:29:58;9.50;20.20
652;DHT22;310;48.490;9.200;2023-02-28T16:32:24;9.20;20.30
652;DHT22;310;48.490;9.200;2023-02-28T16:34:49;9.10;20.60
652;DHT22;310;48.490;9.200;2023-02-28T16:37:17;9.10;20.80
652;DHT22;310;48.490;9.200;2023-02-28T16:39:44;9.10;20.60
652;DHT22;310;48.490;9.200;2023-02-28T16:42:24;8.70;21.40
652;DHT22;310;48.490;9.200;2023-02-28T16:44:51;8.30;21.90
652;DHT22;310;48.490;9.200;2023-02-28T16:47:17;8.20;22.20
652;DHT22;310;48.490;9.200;2023-02-28T16:49:43;8.00;22.30
652;DHT22;310;48.490;9.200;2023-02-28T16:52:10;7.80;21.80
652;DHT22;310;48.490;9.200;2023-02-28T16:54:37;7.80;22.50
652;DHT22;310;48.490;9.200;2023-02-28T16:57:05;8.20;22.80
652;DHT22;310;48.490;9.200;2023-02-28T16:59:31;8.50;21.60
652;DHT22;310;48.490;9.200;2023-02-28T17:01:57;8.50;21.40
652;DHT22;310;48.490;9.200;2023-02-28T17:04:25;8.60;21.80
652;DHT22;310;48.490;9.200;2023-02-28T17:06:51;8.60;22.60
652;DHT22;310;48.490;9.200;2023-02-28T17:09:19;8.40;22.00
652;DHT22;310;48.490;9.200;2023-02-28T17:11:46;8.50;22.20
652;DHT22;310;48.490;9.200;2023-02-28T17:14:12;8.50;22.30
652;DHT22;310;48.490;9.200;2023-02-28T17:16:38;8.30;22.10
652;DHT22;310;48.490;9.200;2023-02-28T17:19:12;8.40;22.00
652;DHT22;310;48.490;9.200;2023-02-28T17:21:38;8.20;22.80
652;DHT22;310;48.490;9.200;2023-02-28T17:24:04;8.30;22.30
652;DHT22;310;48.490;9.200;2023-02-28T17:26:30;8.20;22.10
652;DHT22;310;48.490;9.200;2023-02-28T17:28:57;8.50;22.40
652;DHT22;310;48.490;9.200;2023-02-28T17:31:24;8.30;22.10
652;DHT22;310;48.490;9.200;2023-02-28T17:33:50;8.30;22.30
652;DHT22;310;48.490;9.200;2023-02-28T17:36:20;8.30;22.10
652;DHT22;310;48.490;9.200;2023-02-28T17:38:47;8.30;23.00
652;DHT22;310;48.490;9.200;2023-02-28T17:41:13;8.20;23.20
652;DHT22;310;48.490;9.200;2023-02-28T17:43:39;8.20;22.80
652;DHT22;310;48.490;9.200;2023-02-28T17:46:08;8.20;23.10
652;DHT22;310;48.490;9.200;2023-02-28T17:48:36;8.20;22.80
652;DHT22;310;48.490;9.200;2023-02-28T17:51:02;8.10;22.50
652;DHT22;310;48.490;9.200;2023-02-28T17:53:27;8.20;22.50
652;DHT22;310;48.490;9.200;2023-02-28T17:55:53;7.80;22.70
652;DHT22;310;48.490;9.200;2023-02-28T17:58:19;7.80;23.20
652;DHT22;310;48.490;9.200;2023-02-28T18:00:45;8.00;22.90
652;DHT22;310;48.490;9.200;2023-02-28T18:03:12;8.00;22.90
652;DHT22;310;48.490;9.200;2023-02-28T18:05:38;8.00;22.40
652;DHT22;310;48.490;9.200;2023-02-28T18:08:04;7.70;23.40
652;DHT22;310;48.490;9.200;2023-02-28T18:10:30;7.50;23.30
652;DHT22;310;48.490;9.200;2023-02-28T18:12:59;7.60;23.00
652;DHT22;310;48.490;9.200;2023-02-28T18:15:24;7.60;23.00
652;DHT22;310;48.490;9.200;2023-02-28T18:17:50;7.60;23.70
652;DHT22;310;48.490;9.200;2023-02-28T18:20:16;7.30;23.90
652;DHT22;310;48.490;9.200;2023-02-28T18:22:42;7.30;23.70
652;DHT22;310;48.490;9.200;2023-02-28T18:25:09;7.40;23.60
652;DHT22;310;48.490;9.200;2023-02-28T18:27:39;7.50;23.20
652;DHT22;310;48.490;9.200;2023-02-28T18:30:05;7.50;23.50
652;DHT22;310;48.490;9.200;2023-02-28T18:32:31;7.60;23.40
652;DHT22;310;48.490;9.200;2023-02-28T18:34:56;7.40;23.80
652;DHT22;310;48.490;9.200;2023-02-28T18:37:22;7.20;23.80
652;DHT22;310;48.490;9.200;2023-02-28T18:39:48;7.20;23.80
652;DHT22;310;48.490;9.200;2023-02-28T18:42:14;7.30;23.80
652;DHT22;310;48.490;9.200;2023-02-28T18:44:39;7.30;23.90
652;DHT22;310;48.490;9.200;2023-02-28T18:47:05;7.30;23.80
652;DHT22;310;48.490;9.200;2023-02-28T18:49:31;7.30;24.00
652;DHT22;310;48.490;9.200;2023-02-28T18:52:01;7.30;23.70
652;DHT22;310;48.490;9.200;2023-02-28T18:54:27;7.30;23.70
652;DHT22;310;48.490;9.200;2023-02-28T18:56:53;7.20;23.90
652;DHT22;310;48.490;9.200;2023-02-28T18:59:20;7.10;24.00
652;DHT22;310;48.490;9.200;2023-02-28T19:01:46;7.00;24.10
652;DHT22;310;48.490;9.200;2023-02-28T19:04:12;7.10;24.00
652;DHT22;310;48.490;9.200;2023-02-28T19:06:38;7.40;24.40
652;DHT22;310;48.490;9.200;2023-02-28T19:09:04;7.20;24.00
652;DHT22;310;48.490;9.200;2023-02-28T19:11:31;7.10;24.20
652;DHT22;310;48.490;9.200;2023-02-28T19:13:56;7.00;24.20
652;DHT22;310;48.490;9.200;2023-02-28T19:16:23;6.80;25.50
652;DHT22;310;48.490;9.200;2023-02-28T19:18:49;7.00;24.50
652;DHT22;310;48.490;9.200;2023-02-28T19:21:16;6.90;24.90
652;DHT22;310;48.490;9.200;2023-02-28T19:23:43;6.80;25.10
652;DHT22;310;48.490;9.200;2023-02-28T19:26:12;7.00;24.40
652;DHT22;310;48.490;9.200;2023-02-28T19:28:38;7.00;24.40
652;DHT22;310;48.490;9.200;2023-02-28T19:31:06;7.00;24.30
652;DHT22;310;48.490;9.200;2023-02-28T19:33:37;6.90;24.70
652;DHT22;310;48.490;9.200;2023-02-28T19:36:03;6.80;24.60
652;DHT22;310;48.490;9.200;2023-02-28T19:38:28;6.80;24.80
652;DHT22;310;48.490;9.200;2023-02-28T19:41:05;6.80;24.90
652;DHT22;310;48.490;9.200;2023-02-28T19:43:31;6.90;24.90
652;DHT22;310;48.490;9.200;2023-02-28T19:45:57;6.90;24.60
652;DHT22;310;48.490;9.200;2023-02-28T19:48:23;6.80;24.90
652;DHT22;310;48.490;9.200;2023-02-28T19:51:01;6.80;25.10
652;DHT22;310;48.490;9.200;2023-02-28T19:53:32;6.50;25.10